Time;durP1;ratioP1;P1;durP2;ratioP2;P2;SDS_P1;SDS_P2;PMS_P1;PMS_P2;Temp;Humidity;BMP_temperature;BMP_pressure;BME280_temperature;BME280_humidity;BME280_pressure;Samples;Min_cycle;Max_cycle;Signal;HPM_P1;HPM_P2
2021/03/02 00:00:42;;;;;;;31.85;29.17;;;;;;;;;;5072976;28;20216;-78
2021/03/02 00:03:09;;;;;;;30.90;28.30;;;;;;;;;;5072768;28;20214;-78
2021/03/02 00:05:36;;;;;;;32.17;29.50;;;;;;;;;;5072906;28;20191;-78
2021/03/02 00:08:03;;;;;;;29.98;27.48;;;;;;;;;;5073977;28;20220;-78
2021/03/02 00:10:30;;;;;;;32.15;29.38;;;;;;;;;;5073568;28;20219;-77
2021/03/02 00:12:58;;;;;;;31.35;28.65;;;;;;;;;;5074199;28;20192;-78
2021/03/02 00:15:25;;;;;;;31.08;28.50;;;;;;;;;;5073936;28;20208;-78
2021/03/02 00:17:53;;;;;;;30.73;28.33;;;;;;;;;;5074192;28;20193;-78
2021/03/02 00:20:21;;;;;;;30.35;27.95;;;;;;;;;;5074048;28;20185;-78
2021/03/02 00:22:58;;;;;;;32.53;29.77;;;;;;;;;;5073571;28;20188;-77
2021/03/02 00:25:27;;;;;;;31.80;29.20;;;;;;;;;;5073953;28;20184;-78
2021/03/02 00:27:54;;;;;;;30.45;27.75;;;;;;;;;;5074026;28;20549;-78
2021/03/02 00:30:23;;;;;;;30.77;28.27;;;;;;;;;;5073758;28;20224;-78
2021/03/02 00:32:51;;;;;;;32.83;29.40;;;;;;;;;;5073695;28;20292;-77
2021/03/02 00:35:19;;;;;;;31.55;28.95;;;;;;;;;;5072371;28;20626;-77
2021/03/02 00:37:48;;;;;;;29.83;27.35;;;;;;;;;;5075919;28;20188;-78
2021/03/02 00:40:15;;;;;;;32.05;29.13;;;;;;;;;;5077559;28;20192;-78
2021/03/02 00:42:42;;;;;;;31.73;29.02;;;;;;;;;;5077322;28;20204;-78
2021/03/02 00:45:09;;;;;;;30.35;27.90;;;;;;;;;;5076636;28;20200;-78
2021/03/02 00:47:37;;;;;;;31.42;28.48;;;;;;;;;;5077553;28;20192;-78
2021/03/02 00:50:04;;;;;;;30.98;28.35;;;;;;;;;;5077662;28;20269;-78
2021/03/02 00:52:31;;;;;;;30.27;27.77;;;;;;;;;;5059691;28;20235;-78
2021/03/02 00:54:59;;;;;;;29.40;26.95;;;;;;;;;;5077207;28;20256;-78
2021/03/02 00:57:26;;;;;;;29.35;27.02;;;;;;;;;;5077230;28;20188;-79
2021/03/02 00:59:53;;;;;;;28.15;25.88;;;;;;;;;;5077845;28;20623;-77
2021/03/02 01:02:20;;;;;;;30.17;27.77;;;;;;;;;;5076215;28;20537;-78
2021/03/02 01:04:48;;;;;;;30.35;27.58;;;;;;;;;;5077353;28;20221;-78
2021/03/02 01:07:15;;;;;;;30.13;27.73;;;;;;;;;;5077463;28;20184;-78
2021/03/02 01:09:42;;;;;;;31.58;28.77;;;;;;;;;;5077066;28;20211;-78
2021/03/02 01:12:09;;;;;;;30.08;27.48;;;;;;;;;;5077405;28;20196;-78
2021/03/02 01:14:36;;;;;;;30.33;27.88;;;;;;;;;;5075949;28;20286;-78
2021/03/02 01:17:03;;;;;;;29.83;27.20;;;;;;;;;;5076878;28;20638;-77
2021/03/02 01:19:30;;;;;;;32.13;29.42;;;;;;;;;;5077147;28;20191;-78
2021/03/02 01:21:58;;;;;;;30.40;27.48;;;;;;;;;;5075070;28;20208;-78
2021/03/02 01:24:25;;;;;;;29.73;27.08;;;;;;;;;;5077047;28;20246;-78
2021/03/02 01:26:52;;;;;;;32.20;29.23;;;;;;;;;;5077031;28;20274;-78
2021/03/02 01:29:19;;;;;;;30.92;28.23;;;;;;;;;;5076991;28;20272;-78
2021/03/02 01:31:45;;;;;;;31.08;28.38;;;;;;;;;;5076666;28;20198;-78
2021/03/02 01:34:12;;;;;;;31.85;29.15;;;;;;;;;;5075450;28;20638;-78
2021/03/02 01:36:39;;;;;;;32.42;29.65;;;;;;;;;;5076915;28;20188;-78
2021/03/02 01:39:07;;;;;;;30.10;27.60;;;;;;;;;;5076841;28;20245;-78
2021/03/02 01:41:34;;;;;;;30.80;27.95;;;;;;;;;;5076753;28;20591;-78
2021/03/02 01:44:01;;;;;;;30.92;28.45;;;;;;;;;;5076977;28;20196;-78
2021/03/02 01:46:28;;;;;;;30.25;27.77;;;;;;;;;;5076376;28;20230;-78
2021/03/02 01:48:56;;;;;;;29.23;26.90;;;;;;;;;;5075862;28;20227;-78
2021/03/02 01:51:23;;;;;;;31.33;28.70;;;;;;;;;;5076149;28;20223;-78
2021/03/02 01:53:50;;;;;;;29.48;27.23;;;;;;;;;;5074901;28;20625;-78
2021/03/02 01:56:17;;;;;;;28.55;26.17;;;;;;;;;;5076566;28;20185;-78
2021/03/02 01:58:44;;;;;;;27.63;25.42;;;;;;;;;;5076408;28;20665;-78
2021/03/02 02:01:12;;;;;;;29.67;27.17;;;;;;;;;;5076538;28;20278;-78
2021/03/02 02:03:46;;;;;;;29.40;27.10;;;;;;;;;;5076568;28;20191;-78
2021/03/02 02:06:15;;;;;;;28.55;26.50;;;;;;;;;;5076827;28;20183;-78
2021/03/02 02:08:46;;;;;;;28.30;26.08;;;;;;;;;;5076550;28;20192;-78
2021/03/02 02:11:18;;;;;;;28.92;26.42;;;;;;;;;;5075890;28;20627;-78
2021/03/02 02:13:49;;;;;;;29.15;26.90;;;;;;;;;;5076412;28;20200;-79
2021/03/02 02:16:16;;;;;;;28.23;25.95;;;;;;;;;;5076096;28;20216;-78
2021/03/02 02:18:45;;;;;;;27.52;25.45;;;;;;;;;;5075988;28;20191;-78
2021/03/02 02:21:16;;;;;;;27.45;25.30;;;;;;;;;;5075860;28;20205;-79
2021/03/02 02:23:47;;;;;;;27.95;25.85;;;;;;;;;;5075189;28;20204;-79
2021/03/02 02:26:22;;;;;;;28.00;25.90;;;;;;;;;;5076038;28;20544;-78
2021/03/02 02:28:51;;;;;;;28.70;26.45;;;;;;;;;;5075790;28;20203;-78
2021/03/02 02:31:19;;;;;;;26.70;24.63;;;;;;;;;;5075575;28;20238;-78
2021/03/02 02:33:46;;;;;;;29.20;26.67;;;;;;;;;;5075831;28;20193;-79
2021/03/02 02:36:14;;;;;;;28.08;25.85;;;;;;;;;;5074698;28;20727;-78
2021/03/02 02:38:43;;;;;;;30.27;27.88;;;;;;;;;;5074856;28;20188;-77
2021/03/02 02:41:10;;;;;;;27.67;25.20;;;;;;;;;;5075537;28;20192;-77
2021/03/02 02:43:38;;;;;;;26.50;24.40;;;;;;;;;;5075539;28;20210;-77
2021/03/02 02:46:06;;;;;;;27.98;25.50;;;;;;;;;;5075641;28;20236;-78
2021/03/02 02:48:33;;;;;;;26.55;24.55;;;;;;;;;;5075216;28;20235;-78
2021/03/02 02:51:01;;;;;;;26.92;24.83;;;;;;;;;;5075004;28;20211;-78
2021/03/02 02:53:30;;;;;;;26.38;24.48;;;;;;;;;;5075336;28;20608;-78
2021/03/02 02:55:58;;;;;;;27.13;25.23;;;;;;;;;;5075496;28;20254;-78
2021/03/02 02:58:28;;;;;;;27.50;25.50;;;;;;;;;;5075369;28;20691;-78
2021/03/02 03:00:56;;;;;;;26.58;24.58;;;;;;;;;;5074809;28;20220;-78
2021/03/02 03:03:26;;;;;;;26.73;24.70;;;;;;;;;;5075239;28;20189;-77
2021/03/02 03:05:56;;;;;;;26.30;24.20;;;;;;;;;;5074555;28;20200;-78
2021/03/02 03:08:26;;;;;;;26.42;24.33;;;;;;;;;;5074820;28;20192;-78
2021/03/02 03:10:54;;;;;;;26.35;24.30;;;;;;;;;;5075214;28;20228;-78
2021/03/02 03:13:22;;;;;;;26.63;24.42;;;;;;;;;;5075132;28;20189;-78
2021/03/02 03:15:50;;;;;;;26.25;24.25;;;;;;;;;;5074905;28;20188;-78
2021/03/02 03:18:18;;;;;;;26.70;24.45;;;;;;;;;;5075018;28;20187;-78
2021/03/02 03:20:46;;;;;;;27.60;25.50;;;;;;;;;;5074817;28;20551;-78
2021/03/02 03:23:15;;;;;;;30.35;28.05;;;;;;;;;;5074373;28;20195;-78
2021/03/02 03:25:42;;;;;;;28.00;25.65;;;;;;;;;;5073580;28;20192;-77
2021/03/02 03:28:10;;;;;;;27.38;25.08;;;;;;;;;;5073588;28;20203;-78
2021/03/02 03:30:38;;;;;;;26.50;24.40;;;;;;;;;;5074407;28;20222;-77
2021/03/02 03:33:06;;;;;;;26.48;24.25;;;;;;;;;;5074577;28;20547;-78
2021/03/02 03:35:34;;;;;;;26.35;24.27;;;;;;;;;;5074601;28;20192;-77
2021/03/02 03:38:01;;;;;;;26.60;24.50;;;;;;;;;;5074384;28;20295;-78
2021/03/02 03:40:28;;;;;;;26.10;24.10;;;;;;;;;;5074521;28;20242;-77
2021/03/02 03:42:55;;;;;;;25.80;23.75;;;;;;;;;;5074254;28;20217;-78
2021/03/02 03:45:22;;;;;;;26.70;24.63;;;;;;;;;;5074103;28;20187;-78
2021/03/02 03:47:49;;;;;;;25.08;23.20;;;;;;;;;;5074121;28;20243;-78
2021/03/02 03:50:16;;;;;;;25.75;23.90;;;;;;;;;;5074199;28;20598;-78
2021/03/02 03:52:46;;;;;;;25.50;23.55;;;;;;;;;;5073847;28;20198;-78
2021/03/02 03:55:15;;;;;;;25.48;23.58;;;;;;;;;;5074048;28;20199;-78
2021/03/02 03:57:43;;;;;;;25.73;23.83;;;;;;;;;;5074808;28;20691;-77
2021/03/02 04:00:10;;;;;;;25.13;23.42;;;;;;;;;;5073797;28;20191;-78
2021/03/02 04:02:38;;;;;;;25.50;23.80;;;;;;;;;;5075267;28;20188;-78
2021/03/02 04:05:06;;;;;;;26.52;24.40;;;;;;;;;;5074093;28;20211;-79
2021/03/02 04:07:33;;;;;;;24.83;22.90;;;;;;;;;;5073797;28;20645;-78
2021/03/02 04:10:00;;;;;;;25.13;23.25;;;;;;;;;;5073890;28;20689;-79
2021/03/02 04:12:37;;;;;;;25.58;23.55;;;;;;;;;;5073756;28;20237;-78
2021/03/02 04:15:04;;;;;;;25.27;23.58;;;;;;;;;;5073954;28;20200;-78
2021/03/02 04:17:31;;;;;;;25.52;23.63;;;;;;;;;;5073864;28;20187;-78
2021/03/02 04:19:59;;;;;;;27.63;25.52;;;;;;;;;;5074037;28;20184;-78
2021/03/02 04:22:26;;;;;;;25.45;23.48;;;;;;;;;;5073874;28;20234;-78
2021/03/02 04:24:53;;;;;;;25.40;23.45;;;;;;;;;;5073926;28;20262;-79
2021/03/02 04:27:20;;;;;;;26.77;24.55;;;;;;;;;;5074011;28;20203;-79
2021/03/02 04:29:48;;;;;;;26.17;24.17;;;;;;;;;;5072549;28;20240;-79
2021/03/02 04:32:14;;;;;;;25.63;23.75;;;;;;;;;;5073944;28;20617;-78
2021/03/02 04:34:41;;;;;;;27.83;25.45;;;;;;;;;;5073629;28;20657;-79
2021/03/02 04:37:08;;;;;;;25.63;23.75;;;;;;;;;;5073748;28;20257;-78
2021/03/02 04:39:35;;;;;;;25.48;23.67;;;;;;;;;;5073802;28;20215;-79
2021/03/02 04:42:02;;;;;;;25.65;23.75;;;;;;;;;;5073891;28;20195;-78
2021/03/02 04:44:29;;;;;;;26.15;24.35;;;;;;;;;;5073542;28;20184;-79
2021/03/02 04:46:57;;;;;;;25.20;23.30;;;;;;;;;;5073817;28;20191;-78
2021/03/02 04:49:24;;;;;;;24.58;22.83;;;;;;;;;;5073312;28;20715;-79
2021/03/02 04:51:51;;;;;;;23.92;22.00;;;;;;;;;;5073493;28;20322;-79
2021/03/02 04:54:18;;;;;;;25.48;23.48;;;;;;;;;;5073625;28;20527;-79
2021/03/02 04:56:45;;;;;;;24.80;23.05;;;;;;;;;;5073637;28;20200;-78
2021/03/02 04:59:12;;;;;;;25.38;23.60;;;;;;;;;;5073685;28;20226;-79
2021/03/02 05:01:39;;;;;;;25.55;23.60;;;;;;;;;;5073588;28;20195;-78
2021/03/02 05:04:07;;;;;;;24.70;23.00;;;;;;;;;;5073598;28;20196;-79
2021/03/02 05:06:34;;;;;;;24.75;23.15;;;;;;;;;;5072292;28;20206;-79
2021/03/02 05:09:01;;;;;;;24.75;22.92;;;;;;;;;;5073553;28;20192;-80
2021/03/02 05:11:28;;;;;;;25.45;23.65;;;;;;;;;;5073467;28;20219;-79
2021/03/02 05:13:54;;;;;;;24.80;23.15;;;;;;;;;;5073215;28;20187;-78
2021/03/02 05:16:21;;;;;;;24.92;23.10;;;;;;;;;;5073186;28;20194;-78
2021/03/02 05:18:48;;;;;;;25.42;23.63;;;;;;;;;;5073445;28;20188;-78
2021/03/02 05:21:16;;;;;;;24.88;23.17;;;;;;;;;;5072995;28;20199;-79
2021/03/02 05:23:43;;;;;;;24.67;23.00;;;;;;;;;;5074602;28;20594;-78
2021/03/02 05:26:10;;;;;;;23.77;22.08;;;;;;;;;;5076767;28;20188;-78
2021/03/02 05:28:37;;;;;;;24.88;22.98;;;;;;;;;;5076800;28;20200;-78
2021/03/02 05:31:04;;;;;;;25.20;23.42;;;;;;;;;;5075423;28;20326;-79
2021/03/02 05:33:31;;;;;;;23.63;21.88;;;;;;;;;;5076032;28;20204;-79
2021/03/02 05:35:58;;;;;;;23.48;21.95;;;;;;;;;;5076939;28;20187;-78
2021/03/02 05:38:26;;;;;;;23.98;22.38;;;;;;;;;;5077068;28;20207;-77
2021/03/02 05:40:53;;;;;;;24.10;22.48;;;;;;;;;;5076903;28;20245;-78
2021/03/02 05:43:20;;;;;;;25.35;23.55;;;;;;;;;;5076674;28;20573;-79
2021/03/02 05:45:47;;;;;;;23.55;21.95;;;;;;;;;;5075546;28;20196;-78
2021/03/02 05:48:15;;;;;;;24.48;22.58;;;;;;;;;;5076475;28;20288;-78
2021/03/02 05:50:42;;;;;;;24.55;22.95;;;;;;;;;;5076658;28;20626;-78
2021/03/02 05:53:10;;;;;;;24.58;22.98;;;;;;;;;;5075192;28;20211;-78
2021/03/02 05:55:39;;;;;;;24.00;22.40;;;;;;;;;;5076520;28;20188;-78
2021/03/02 05:58:06;;;;;;;24.23;22.50;;;;;;;;;;5076299;28;20192;-80
2021/03/02 06:00:33;;;;;;;24.23;22.35;;;;;;;;;;5076477;28;20199;-78
2021/03/02 06:03:00;;;;;;;23.52;22.08;;;;;;;;;;5076186;28;20188;-78
2021/03/02 06:05:27;;;;;;;23.60;22.10;;;;;;;;;;5076526;28;20191;-78
2021/03/02 06:07:54;;;;;;;23.85;22.15;;;;;;;;;;5076422;28;20191;-78
2021/03/02 06:10:28;;;;;;;23.88;22.15;;;;;;;;;;5074814;28;20230;-77
2021/03/02 06:12:57;;;;;;;22.90;21.40;;;;;;;;;;5075809;28;20193;-77
2021/03/02 06:15:24;;;;;;;23.23;21.73;;;;;;;;;;5075940;28;20637;-77
2021/03/02 06:18:08;;;;;;;22.80;21.33;;;;;;;;;;5075781;28;20188;-78
2021/03/02 06:20:35;;;;;;;22.75;21.27;;;;;;;;;;5076129;28;20253;-78
2021/03/02 06:23:19;;;;;;;24.33;22.20;;;;;;;;;;5075981;28;20202;-77
2021/03/02 06:25:48;;;;;;;23.27;21.50;;;;;;;;;;5075591;28;20195;-78
2021/03/02 06:28:32;;;;;;;23.13;21.73;;;;;;;;;;5076455;28;20196;-77
2021/03/02 06:30:59;;;;;;;22.88;21.38;;;;;;;;;;5075446;28;20215;-77
2021/03/02 06:33:26;;;;;;;22.83;21.33;;;;;;;;;;5074435;28;20649;-78
2021/03/02 06:35:53;;;;;;;23.60;21.88;;;;;;;;;;5074401;28;20279;-77
2021/03/02 06:38:27;;;;;;;23.52;22.00;;;;;;;;;;5075274;28;20193;-76
2021/03/02 06:40:54;;;;;;;31.02;28.40;;;;;;;;;;5075358;28;20642;-77
2021/03/02 06:43:32;;;;;;;30.75;28.15;;;;;;;;;;5073969;28;20188;-75
2021/03/02 06:45:59;;;;;;;24.85;23.02;;;;;;;;;;5075075;28;20522;-75
2021/03/02 06:48:27;;;;;;;24.70;22.90;;;;;;;;;;5074689;28;20232;-76
2021/03/02 06:50:54;;;;;;;24.85;23.05;;;;;;;;;;5074294;28;20754;-75
2021/03/02 06:53:21;;;;;;;25.20;23.50;;;;;;;;;;5075014;28;20222;-75
2021/03/02 06:55:48;;;;;;;24.63;22.83;;;;;;;;;;5074758;28;20188;-75
2021/03/02 06:58:16;;;;;;;23.63;21.92;;;;;;;;;;5074974;28;20661;-75
2021/03/02 07:00:49;;;;;;;23.10;21.50;;;;;;;;;;5074673;28;20188;-75
2021/03/02 07:03:26;;;;;;;23.75;21.75;;;;;;;;;;5074805;28;20637;-76
2021/03/02 07:05:54;;;;;;;22.70;21.20;;;;;;;;;;5075046;28;20184;-75
2021/03/02 07:08:21;;;;;;;23.02;21.42;;;;;;;;;;5074031;28;20206;-76
2021/03/02 07:10:51;;;;;;;23.70;21.40;;;;;;;;;;5074706;28;20704;-76
2021/03/02 07:13:18;;;;;;;23.95;22.27;;;;;;;;;;5074665;28;20222;-76
2021/03/02 07:15:46;;;;;;;21.58;20.20;;;;;;;;;;5074900;28;20687;-75
2021/03/02 07:18:15;;;;;;;22.92;21.42;;;;;;;;;;5074664;28;20258;-75
2021/03/02 07:20:54;;;;;;;22.35;20.75;;;;;;;;;;5074625;28;20196;-76
2021/03/02 07:23:22;;;;;;;22.15;20.58;;;;;;;;;;5074754;28;20222;-75
2021/03/02 07:25:50;;;;;;;22.95;21.40;;;;;;;;;;5074634;28;20270;-75
2021/03/02 07:28:20;;;;;;;22.65;21.15;;;;;;;;;;5074478;28;20191;-75
2021/03/02 07:30:47;;;;;;;23.27;21.63;;;;;;;;;;5074213;28;20231;-75
2021/03/02 07:33:15;;;;;;;22.95;21.25;;;;;;;;;;5074228;28;20218;-75
2021/03/02 07:35:42;;;;;;;23.42;21.67;;;;;;;;;;5074049;28;20196;-75
2021/03/02 07:38:17;;;;;;;23.88;22.08;;;;;;;;;;5074118;28;20192;-75
2021/03/02 07:40:48;;;;;;;26.10;24.27;;;;;;;;;;5074249;28;20194;-76
2021/03/02 07:43:24;;;;;;;25.25;23.40;;;;;;;;;;5074404;28;20193;-75
2021/03/02 07:45:51;;;;;;;23.52;21.88;;;;;;;;;;5073800;28;20192;-75
2021/03/02 07:48:26;;;;;;;26.20;24.08;;;;;;;;;;5073936;28;20704;-79
2021/03/02 07:51:09;;;;;;;24.17;22.38;;;;;;;;;;5072427;28;20284;-73
2021/03/02 07:53:36;;;;;;;24.52;22.60;;;;;;;;;;5061793;28;20216;-73
2021/03/02 07:56:21;;;;;;;24.45;22.75;;;;;;;;;;5074201;28;20227;-76
2021/03/02 07:59:03;;;;;;;23.48;21.88;;;;;;;;;;5073893;28;20200;-77
2021/03/02 08:01:30;;;;;;;23.35;21.67;;;;;;;;;;5065275;28;20207;-75
2021/03/02 08:04:24;;;;;;;23.55;21.92;;;;;;;;;;5074136;28;20195;-75
2021/03/02 08:06:51;;;;;;;22.85;21.42;;;;;;;;;;5073711;28;20650;-75
2021/03/02 08:09:30;;;;;;;23.85;22.13;;;;;;;;;;5073590;28;20206;-74
2021/03/02 08:12:27;;;;;;;22.73;21.15;;;;;;;;;;5073986;28;20213;-74
2021/03/02 08:14:54;;;;;;;22.95;21.35;;;;;;;;;;5073682;28;20200;-75
2021/03/02 08:17:22;;;;;;;23.00;21.40;;;;;;;;;;5073993;28;20189;-74
2021/03/02 08:19:51;;;;;;;22.67;20.83;;;;;;;;;;5073606;28;20196;-75
2021/03/02 08:22:36;;;;;;;22.48;21.15;;;;;;;;;;5073712;28;20215;-75
2021/03/02 08:25:05;;;;;;;24.45;22.58;;;;;;;;;;5074181;28;20242;-75
2021/03/02 08:27:38;;;;;;;23.00;21.45;;;;;;;;;;5073514;28;20188;-75
2021/03/02 08:30:07;;;;;;;23.42;21.83;;;;;;;;;;5073479;28;20245;-75
2021/03/02 08:32:34;;;;;;;25.42;23.50;;;;;;;;;;5073747;28;20292;-75
2021/03/02 08:35:06;;;;;;;22.85;21.23;;;;;;;;;;5071895;28;20210;-75
2021/03/02 08:37:40;;;;;;;23.52;21.73;;;;;;;;;;5073393;28;20658;-75
2021/03/02 08:40:08;;;;;;;24.65;22.45;;;;;;;;;;5073666;28;20197;-74
2021/03/02 08:42:35;;;;;;;23.13;21.55;;;;;;;;;;5073645;28;20664;-75
2021/03/02 08:45:06;;;;;;;23.35;21.85;;;;;;;;;;5074068;28;20275;-75
2021/03/02 08:47:34;;;;;;;23.60;21.90;;;;;;;;;;5073316;28;20193;-75
2021/03/02 08:50:00;;;;;;;23.83;22.10;;;;;;;;;;5073326;28;20450;-74
2021/03/02 08:52:38;;;;;;;24.35;22.58;;;;;;;;;;5073409;28;20654;-75
2021/03/02 08:55:06;;;;;;;23.70;22.02;;;;;;;;;;5073231;28;20197;-74
2021/03/02 08:57:43;;;;;;;25.00;23.10;;;;;;;;;;5073028;28;20208;-82
2021/03/02 09:00:14;;;;;;;24.45;22.65;;;;;;;;;;5077238;28;20229;-74
2021/03/02 09:02:48;;;;;;;24.77;22.85;;;;;;;;;;5077442;28;20188;-74
2021/03/02 09:05:16;;;;;;;23.88;22.27;;;;;;;;;;5077484;28;20201;-74
2021/03/02 09:07:44;;;;;;;26.13;23.80;;;;;;;;;;5077347;28;20196;-74
2021/03/02 09:10:15;;;;;;;25.08;23.25;;;;;;;;;;5077192;28;20188;-74
2021/03/02 09:12:48;;;;;;;24.67;22.88;;;;;;;;;;5076898;28;20197;-74
2021/03/02 09:15:15;;;;;;;24.90;23.10;;;;;;;;;;5076904;28;20190;-74
2021/03/02 09:17:42;;;;;;;24.35;22.70;;;;;;;;;;5077104;28;20212;-74
2021/03/02 09:20:10;;;;;;;24.75;22.75;;;;;;;;;;5076744;28;20231;-74
2021/03/02 09:22:37;;;;;;;24.52;22.80;;;;;;;;;;5076959;28;20529;-75
2021/03/02 09:25:05;;;;;;;25.25;23.45;;;;;;;;;;5076989;28;20245;-75
2021/03/02 09:27:33;;;;;;;24.77;22.77;;;;;;;;;;5076683;28;20722;-74
2021/03/02 09:30:00;;;;;;;24.30;22.60;;;;;;;;;;5076530;28;20656;-75
2021/03/02 09:32:28;;;;;;;25.40;23.45;;;;;;;;;;5076778;28;20227;-75
2021/03/02 09:34:56;;;;;;;24.80;23.00;;;;;;;;;;5076520;28;20188;-75
2021/03/02 09:37:22;;;;;;;26.38;24.15;;;;;;;;;;5076509;28;20195;-74
2021/03/02 09:39:56;;;;;;;24.50;22.73;;;;;;;;;;5076405;28;20285;-74
2021/03/02 09:42:25;;;;;;;24.93;23.03;;;;;;;;;;5076341;28;20459;-75
2021/03/02 09:44:53;;;;;;;24.63;22.90;;;;;;;;;;5076675;28;20411;-74
2021/03/02 09:47:25;;;;;;;26.00;24.30;;;;;;;;;;5076326;28;20553;-74
2021/03/02 09:49:56;;;;;;;26.48;24.30;;;;;;;;;;5075122;28;20467;-75
2021/03/02 09:52:28;;;;;;;27.40;25.30;;;;;;;;;;5075992;28;20688;-74
2021/03/02 09:55:11;;;;;;;23.90;22.20;;;;;;;;;;5076019;28;20490;-73
2021/03/02 09:57:47;;;;;;;25.60;23.60;;;;;;;;;;5076194;28;20429;-75
2021/03/02 10:00:15;;;;;;;25.77;23.88;;;;;;;;;;5076270;28;20511;-74
2021/03/02 10:02:48;;;;;;;26.60;24.33;;;;;;;;;;5075961;28;20260;-74
2021/03/02 10:05:15;;;;;;;25.13;23.13;;;;;;;;;;5076368;28;20420;-74
2021/03/02 10:07:44;;;;;;;25.33;23.00;;;;;;;;;;5075563;28;20420;-74
2021/03/02 10:10:11;;;;;;;24.30;22.60;;;;;;;;;;5075835;28;20485;-74
2021/03/02 10:12:38;;;;;;;26.03;23.40;;;;;;;;;;5075875;28;20445;-75
2021/03/02 10:15:07;;;;;;;25.90;23.90;;;;;;;;;;5074928;28;20415;-74
2021/03/02 10:17:37;;;;;;;24.23;22.53;;;;;;;;;;5075782;28;20214;-75
2021/03/02 10:20:07;;;;;;;24.87;23.07;;;;;;;;;;5076046;28;20441;-79
2021/03/02 10:22:34;;;;;;;25.00;23.13;;;;;;;;;;5075623;28;20441;-75
2021/03/02 10:25:03;;;;;;;24.90;23.20;;;;;;;;;;5075958;28;20524;-78
2021/03/02 10:27:30;;;;;;;25.10;23.40;;;;;;;;;;5076079;28;20441;-75
2021/03/02 10:29:59;;;;;;;23.83;22.30;;;;;;;;;;5073621;28;20452;-79
2021/03/02 10:32:27;;;;;;;24.30;22.60;;;;;;;;;;5075403;28;20463;-77
2021/03/02 10:34:54;;;;;;;24.73;22.83;;;;;;;;;;5075538;28;20919;-77
2021/03/02 10:37:21;;;;;;;25.20;23.40;;;;;;;;;;5075776;28;20444;-76
2021/03/02 10:39:48;;;;;;;24.60;22.90;;;;;;;;;;5075832;28;20432;-72
2021/03/02 10:42:16;;;;;;;23.50;21.90;;;;;;;;;;5073933;28;20418;-76
2021/03/02 10:44:43;;;;;;;23.93;22.03;;;;;;;;;;5075561;28;20419;-75
2021/03/02 10:47:10;;;;;;;24.40;22.40;;;;;;;;;;5074923;28;20449;-75
2021/03/02 10:49:38;;;;;;;24.00;22.40;;;;;;;;;;5072822;28;20463;-72
2021/03/02 10:52:05;;;;;;;24.90;22.90;;;;;;;;;;5073707;28;20972;-73
2021/03/02 10:54:32;;;;;;;24.87;22.90;;;;;;;;;;5074818;28;20440;-75
2021/03/02 10:56:59;;;;;;;24.20;22.50;;;;;;;;;;5075047;28;20441;-77
2021/03/02 10:59:26;;;;;;;25.07;22.97;;;;;;;;;;5075070;28;20442;-77
2021/03/02 11:01:53;;;;;;;24.03;22.43;;;;;;;;;;5075057;28;20407;-76
2021/03/02 11:04:20;;;;;;;25.23;23.13;;;;;;;;;;5074781;28;20419;-75
2021/03/02 11:06:47;;;;;;;25.50;23.70;;;;;;;;;;5074654;28;20439;-73
2021/03/02 11:09:17;;;;;;;24.13;22.33;;;;;;;;;;5074997;28;20441;-72
2021/03/02 11:11:43;;;;;;;25.27;23.27;;;;;;;;;;5074815;28;20467;-75
2021/03/02 11:14:10;;;;;;;24.47;22.63;;;;;;;;;;5074742;28;20412;-76
2021/03/02 11:16:37;;;;;;;24.40;22.70;;;;;;;;;;5074561;28;20816;-74
2021/03/02 11:19:04;;;;;;;24.77;22.97;;;;;;;;;;5074862;28;20407;-75
2021/03/02 11:21:31;;;;;;;24.13;22.17;;;;;;;;;;5074000;28;20910;-74
2021/03/02 11:23:59;;;;;;;25.10;23.40;;;;;;;;;;5074423;28;20961;-72
2021/03/02 11:26:26;;;;;;;24.57;22.87;;;;;;;;;;5074086;28;20953;-73
2021/03/02 11:28:53;;;;;;;26.33;24.10;;;;;;;;;;5074426;28;20437;-73
2021/03/02 11:31:20;;;;;;;25.80;23.77;;;;;;;;;;5074544;28;20962;-73
2021/03/02 11:33:46;;;;;;;24.30;22.50;;;;;;;;;;5074489;28;20463;-72
2021/03/02 11:36:13;;;;;;;24.10;22.40;;;;;;;;;;5074341;28;20462;-74
2021/03/02 11:38:40;;;;;;;25.37;23.47;;;;;;;;;;5074351;28;20766;-74
2021/03/02 11:41:08;;;;;;;24.80;22.90;;;;;;;;;;5074167;28;20485;-73
2021/03/02 11:43:35;;;;;;;25.30;23.50;;;;;;;;;;5072832;28;20419;-73
2021/03/02 11:46:03;;;;;;;25.47;23.57;;;;;;;;;;5074304;28;20412;-72
2021/03/02 11:48:30;;;;;;;24.57;22.97;;;;;;;;;;5072560;28;20451;-73
2021/03/02 11:50:57;;;;;;;23.70;22.10;;;;;;;;;;5073878;28;20503;-73
2021/03/02 11:53:24;;;;;;;25.83;23.83;;;;;;;;;;5073699;28;20903;-73
2021/03/02 11:55:50;;;;;;;25.47;23.50;;;;;;;;;;5074191;28;20438;-72
2021/03/02 11:58:18;;;;;;;27.07;25.20;;;;;;;;;;5074038;28;20419;-72
2021/03/02 12:00:45;;;;;;;25.03;23.27;;;;;;;;;;5073478;28;20444;-72
2021/03/02 12:03:12;;;;;;;23.97;22.27;;;;;;;;;;5073547;28;20416;-73
2021/03/02 12:05:39;;;;;;;23.73;22.20;;;;;;;;;;5073643;28;20756;-73
2021/03/02 12:08:06;;;;;;;25.97;23.90;;;;;;;;;;5073692;28;20485;-72
2021/03/02 12:10:33;;;;;;;24.17;22.50;;;;;;;;;;5073703;28;20437;-74
2021/03/02 12:13:00;;;;;;;24.17;22.37;;;;;;;;;;5073643;28;20416;-73
2021/03/02 12:15:28;;;;;;;26.27;24.27;;;;;;;;;;5073896;28;20429;-73
2021/03/02 12:17:55;;;;;;;26.33;24.33;;;;;;;;;;5072694;28;20441;-73
2021/03/02 12:20:22;;;;;;;26.53;24.60;;;;;;;;;;5074028;28;20434;-73
2021/03/02 12:22:49;;;;;;;26.33;24.60;;;;;;;;;;5073642;28;20455;-74
2021/03/02 12:25:16;;;;;;;25.40;23.50;;;;;;;;;;5073533;28;20430;-73
2021/03/02 12:27:43;;;;;;;25.93;24.03;;;;;;;;;;5073775;28;20431;-74
2021/03/02 12:30:11;;;;;;;25.47;23.67;;;;;;;;;;5073689;28;20408;-74
2021/03/02 12:32:39;;;;;;;26.17;24.07;;;;;;;;;;5072698;28;20460;-74
2021/03/02 12:35:06;;;;;;;25.90;24.00;;;;;;;;;;5073332;28;20897;-74
2021/03/02 12:37:33;;;;;;;25.47;23.50;;;;;;;;;;5073246;28;20416;-74
2021/03/02 12:40:01;;;;;;;25.63;23.63;;;;;;;;;;5073347;28;20413;-74
2021/03/02 12:42:27;;;;;;;25.23;23.30;;;;;;;;;;5073643;28;20431;-74
2021/03/02 12:44:54;;;;;;;25.10;23.40;;;;;;;;;;5073257;28;20444;-74
2021/03/02 12:47:21;;;;;;;24.97;23.23;;;;;;;;;;5073320;28;20413;-74
2021/03/02 12:49:49;;;;;;;24.47;22.87;;;;;;;;;;5073246;28;20851;-73
2021/03/02 12:52:16;;;;;;;24.43;22.83;;;;;;;;;;5072674;28;20562;-74
2021/03/02 12:54:43;;;;;;;24.43;22.80;;;;;;;;;;5073276;28;20461;-74
2021/03/02 12:57:10;;;;;;;24.17;22.53;;;;;;;;;;5072232;28;20895;-74
2021/03/02 12:59:37;;;;;;;23.03;21.50;;;;;;;;;;5072207;28;20417;-74
2021/03/02 13:02:05;;;;;;;23.83;22.23;;;;;;;;;;5073162;28;20508;-73
2021/03/02 13:04:32;;;;;;;23.93;22.23;;;;;;;;;;5073372;28;20468;-74
2021/03/02 13:07:00;;;;;;;24.20;22.40;;;;;;;;;;5072585;28;20499;-74
2021/03/02 13:09:27;;;;;;;24.07;22.47;;;;;;;;;;5073231;28;20565;-73
2021/03/02 13:11:54;;;;;;;24.27;22.03;;;;;;;;;;5073260;28;20489;-74
2021/03/02 13:14:21;;;;;;;24.63;22.73;;;;;;;;;;5073065;28;20434;-73
2021/03/02 13:16:48;;;;;;;23.30;21.80;;;;;;;;;;5073384;28;20408;-74
2021/03/02 13:19:15;;;;;;;23.60;22.07;;;;;;;;;;5073238;28;20432;-73
2021/03/02 13:21:41;;;;;;;24.00;22.30;;;;;;;;;;5072853;28;20434;-73
2021/03/02 13:24:11;;;;;;;24.17;22.57;;;;;;;;;;5073592;28;20429;-73
2021/03/02 13:26:38;;;;;;;24.33;22.60;;;;;;;;;;5073300;28;20441;-74
2021/03/02 13:29:07;;;;;;;23.20;21.60;;;;;;;;;;5073030;28;20790;-73
2021/03/02 13:31:36;;;;;;;23.33;21.80;;;;;;;;;;5073182;28;20765;-75
2021/03/02 13:34:04;;;;;;;23.60;22.10;;;;;;;;;;5073182;28;20412;-74
2021/03/02 13:36:31;;;;;;;24.00;22.37;;;;;;;;;;5073225;28;20412;-73
2021/03/02 13:38:59;;;;;;;25.27;23.67;;;;;;;;;;5072761;28;20420;-74
2021/03/02 13:41:28;;;;;;;23.73;22.20;;;;;;;;;;5073107;28;20440;-73
2021/03/02 13:43:58;;;;;;;24.00;22.50;;;;;;;;;;5073258;28;20434;-74
2021/03/02 13:46:25;;;;;;;23.97;22.47;;;;;;;;;;5076552;28;20424;-74
2021/03/02 13:48:52;;;;;;;24.13;22.53;;;;;;;;;;5075974;28;20819;-74
2021/03/02 13:51:21;;;;;;;24.73;22.97;;;;;;;;;;5077802;28;20485;-75
2021/03/02 13:53:48;;;;;;;24.20;22.70;;;;;;;;;;5077302;28;20405;-75
2021/03/02 13:56:15;;;;;;;24.47;22.97;;;;;;;;;;5075645;28;20412;-74
2021/03/02 13:58:43;;;;;;;24.30;22.80;;;;;;;;;;5076677;28;20416;-74
2021/03/02 14:01:10;;;;;;;24.30;22.80;;;;;;;;;;5076727;28;20434;-74
2021/03/02 14:03:37;;;;;;;24.37;22.87;;;;;;;;;;5076381;28;20462;-74
2021/03/02 14:06:04;;;;;;;24.27;22.47;;;;;;;;;;5076327;28;20736;-74
2021/03/02 14:08:32;;;;;;;24.47;22.87;;;;;;;;;;5075559;28;20473;-74
2021/03/02 14:10:59;;;;;;;23.90;22.40;;;;;;;;;;5076066;28;20493;-74
2021/03/02 14:13:26;;;;;;;24.50;22.90;;;;;;;;;;5076260;28;20793;-74
2021/03/02 14:15:54;;;;;;;23.87;22.37;;;;;;;;;;5075051;28;20442;-74
2021/03/02 14:18:23;;;;;;;23.33;21.83;;;;;;;;;;5075827;28;20483;-74
2021/03/02 14:20:51;;;;;;;22.07;20.67;;;;;;;;;;5075264;28;20512;-74
2021/03/02 14:23:17;;;;;;;22.97;21.57;;;;;;;;;;5075814;28;20524;-74